Time;durP1;ratioP1;P1;durP2;ratioP2;P2;SDS_P1;SDS_P2;PMS_P1;PMS_P2;Temp;Humidity;BMP_temperature;BMP_pressure;BME280_temperature;BME280_humidity;BME280_pressure;Samples;Min_cycle;Max_cycle;Signal;HPM_P1;HPM_P2
2022/07/14 00:01:22;;;;;;;7.28;0.93;;;14.40;99.90;;;;;;5005967;28;20451;-84
2022/07/14 00:04:08;;;;;;;7.20;2.20;;;14.40;99.90;;;;;;5004910;28;20086;-84
2022/07/14 00:07:11;;;;;;;9.77;1.27;;;14.30;99.90;;;;;;4990150;28;20080;-84
2022/07/14 00:10:18;;;;;;;6.90;1.70;;;14.40;99.90;;;;;;4958579;28;20455;-85
2022/07/14 00:13:04;;;;;;;7.38;0.90;;;14.30;99.90;;;;;;4987918;28;20116;-84
2022/07/14 00:16:51;;;;;;;4.90;1.25;;;14.30;99.90;;;;;;4983916;28;20042;-84
2022/07/14 00:19:30;;;;;;;6.05;0.95;;;14.30;99.90;;;;;;4875017;29;21722;-84
2022/07/14 00:22:32;;;;;;;11.05;1.52;;;14.20;99.90;;;;;;4875747;29;20032;-84
2022/07/14 00:25:19;;;;;;;8.55;2.63;;;14.20;99.90;;;;;;4990825;28;20039;-84
2022/07/14 00:27:48;;;;;;;5.68;0.82;;;14.20;99.90;;;;;;4989977;28;20045;-85
2022/07/14 00:30:14;;;;;;;9.45;1.75;;;14.10;99.90;;;;;;5001746;28;20050;-85
2022/07/14 00:32:39;;;;;;;8.40;1.38;;;14.10;99.90;;;;;;4993218;28;20042;-85
2022/07/14 00:35:06;;;;;;;6.93;1.77;;;14.00;99.90;;;;;;4991864;28;20488;-85
2022/07/14 00:37:34;;;;;;;6.68;1.10;;;14.00;99.90;;;;;;4993564;28;20396;-85
2022/07/14 00:40:04;;;;;;;6.47;1.15;;;14.10;99.90;;;;;;4992150;28;20389;-84
2022/07/14 00:42:35;;;;;;;6.60;1.05;;;14.00;99.90;;;;;;4992896;28;20519;-84
2022/07/14 00:45:10;;;;;;;5.13;1.38;;;14.00;99.90;;;;;;4992730;28;20229;-84
2022/07/14 00:47:36;;;;;;;;;;;13.90;99.90;;;;;;4989182;28;20124;-83
2022/07/14 00:50:02;;;;;;;7.10;0.95;;;13.90;99.90;;;;;;4973598;28;20040;-84
2022/07/14 00:52:29;;;;;;;6.88;1.20;;;13.90;99.90;;;;;;4987999;28;20045;-84
2022/07/14 00:54:56;;;;;;;4.47;1.00;;;13.90;99.90;;;;;;4969328;28;20081;-84
2022/07/14 00:57:22;;;;;;;7.32;0.98;;;13.80;99.90;;;;;;4985825;28;20041;-85
2022/07/14 00:59:48;;;;;;;11.80;2.42;;;13.80;99.90;;;;;;5007173;28;20045;-84
2022/07/14 01:02:15;;;;;;;9.48;1.92;;;13.80;99.90;;;;;;5008284;28;20034;-84
2022/07/14 01:04:41;;;;;;;13.68;2.78;;;13.70;99.90;;;;;;4990466;28;20053;-84
2022/07/14 01:07:07;;;;;;;10.15;1.90;;;13.70;99.90;;;;;;5009545;28;20037;-85
2022/07/14 01:09:33;;;;;;;7.15;1.65;;;13.60;99.90;;;;;;5004693;28;20041;-84
2022/07/14 01:12:00;;;;;;;6.72;2.35;;;13.50;99.90;;;;;;4992849;28;20088;-83
2022/07/14 01:14:26;;;;;;;5.30;1.13;;;13.50;99.90;;;;;;4993347;28;20519;-84
2022/07/14 01:16:54;;;;;;;11.27;1.75;;;13.40;99.90;;;;;;4993639;28;20038;-84
2022/07/14 01:19:20;;;;;;;5.97;1.40;;;13.40;99.90;;;;;;4976339;28;20069;-84
2022/07/14 01:21:46;;;;;;;9.68;1.58;;;13.40;99.90;;;;;;4976746;28;20042;-83
2022/07/14 01:24:12;;;;;;;8.45;1.83;;;13.40;99.90;;;;;;4990957;28;20045;-84
2022/07/14 01:26:38;;;;;;;10.90;1.52;;;13.40;99.90;;;;;;4985560;28;20109;-84
2022/07/14 01:29:06;;;;;;;8.02;1.65;;;13.40;99.90;;;;;;4976790;28;20504;-84
2022/07/14 01:31:32;;;;;;;8.80;2.63;;;13.40;99.90;;;;;;4993788;28;20042;-84
2022/07/14 01:33:58;;;;;;;6.43;1.42;;;13.30;99.90;;;;;;4966930;28;20033;-84
2022/07/14 01:36:24;;;;;;;10.55;1.67;;;13.30;99.90;;;;;;4992735;28;20061;-83
2022/07/14 01:38:52;;;;;;;7.60;1.45;;;13.30;99.90;;;;;;4989652;28;20413;-83
2022/07/14 01:41:18;;;;;;;7.95;1.50;;;13.30;99.90;;;;;;4993340;28;20115;-83
2022/07/14 01:43:44;;;;;;;7.10;1.80;;;13.30;99.90;;;;;;4995310;28;20493;-83
2022/07/14 01:46:10;;;;;;;4.38;1.63;;;13.30;99.90;;;;;;5006706;28;20039;-83
2022/07/14 01:48:35;;;;;;;8.65;1.90;;;13.20;99.90;;;;;;4991623;28;20128;-83
2022/07/14 01:51:01;;;;;;;11.52;2.55;;;13.20;99.90;;;;;;5007874;28;20526;-82
2022/07/14 01:53:27;;;;;;;8.32;1.58;;;13.20;99.90;;;;;;4996501;28;20381;-83
2022/07/14 01:55:52;;;;;;;8.00;1.67;;;13.20;99.90;;;;;;4998085;28;20125;-83
2022/07/14 01:58:18;;;;;;;9.18;2.35;;;13.20;99.90;;;;;;4998247;28;20038;-83
2022/07/14 02:01:38;;;;;;;11.70;2.45;;;13.20;99.90;;;;;;5007126;28;20049;-83
2022/07/14 02:03:29;;;;;;;8.57;2.00;;;13.20;99.90;;;;;;4996043;28;20049;-84
2022/07/14 02:05:55;;;;;;;7.07;1.67;;;13.10;99.90;;;;;;4996823;28;20467;-83
2022/07/14 02:08:20;;;;;;;7.15;1.80;;;13.10;99.90;;;;;;4996526;28;20038;-83
2022/07/14 02:13:30;;;;;;;8.68;2.17;;;13.00;99.90;;;;;;4995544;28;20648;-83
2022/07/14 02:15:56;;;;;;;6.60;2.72;;;13.00;99.90;;;;;;4979548;28;20038;-83
2022/07/14 02:18:21;;;;;;;8.27;1.98;;;12.90;99.90;;;;;;4979305;28;20042;-83
2022/07/14 02:20:47;;;;;;;6.72;1.73;;;12.90;99.90;;;;;;4995984;28;20046;-82
2022/07/14 02:23:13;;;;;;;5.78;1.30;;;12.90;99.90;;;;;;4986030;28;20042;-83
2022/07/14 02:25:38;;;;;;;6.47;1.88;;;12.80;99.90;;;;;;4961324;28;20042;-83
2022/07/14 02:28:04;;;;;;;4.75;1.10;;;12.80;99.90;;;;;;4976509;28;20042;-82
2022/07/14 02:30:30;;;;;;;5.55;0.90;;;12.70;99.90;;;;;;4991569;28;20040;-82
2022/07/14 02:32:55;;;;;;;6.60;1.48;;;12.70;99.90;;;;;;4980942;28;20073;-82
2022/07/14 02:35:23;;;;;;;5.70;1.40;;;12.60;99.90;;;;;;4996584;28;20037;-82
2022/07/14 02:37:49;;;;;;;5.93;1.70;;;12.50;99.90;;;;;;4996684;28;20129;-82
2022/07/14 02:40:15;;;;;;;4.35;1.52;;;12.40;99.90;;;;;;4996498;28;20045;-82
2022/07/14 02:42:41;;;;;;;6.53;0.93;;;12.40;99.90;;;;;;4995598;28;20533;-81
2022/07/14 02:45:07;;;;;;;7.57;1.45;;;12.30;99.90;;;;;;4980759;28;20393;-81
2022/07/14 02:47:33;;;;;;;5.72;1.08;;;12.30;99.90;;;;;;4997445;28;20034;-82
2022/07/14 02:49:59;;;;;;;4.18;2.25;;;12.30;99.90;;;;;;5014049;28;20049;-82
2022/07/14 02:52:24;;;;;;;5.88;1.38;;;12.20;99.90;;;;;;5013175;28;20070;-82
2022/07/14 02:54:50;;;;;;;7.55;1.50;;;12.20;99.90;;;;;;4997293;28;20129;-82
2022/07/14 02:57:15;;;;;;;3.85;1.02;;;12.10;99.90;;;;;;5000134;28;20276;-82
2022/07/14 02:59:41;;;;;;;4.15;0.70;;;12.10;99.90;;;;;;5003592;28;20069;-81
2022/07/14 03:02:08;;;;;;;2.30;0.80;;;12.00;99.90;;;;;;5002693;28;20088;-82
2022/07/14 03:04:34;;;;;;;5.25;1.40;;;12.00;99.90;;;;;;4987686;28;20060;-82
2022/07/14 03:06:59;;;;;;;7.25;1.40;;;11.90;99.90;;;;;;5004637;28;20034;-82
2022/07/14 03:09:26;;;;;;;4.43;1.42;;;11.80;99.90;;;;;;4987307;28;20053;-81
2022/07/14 03:11:51;;;;;;;3.70;0.90;;;11.80;99.90;;;;;;5003332;28;20061;-82
2022/07/14 03:14:17;;;;;;;5.88;1.88;;;11.70;99.90;;;;;;4987139;28;20385;-82
2022/07/14 03:16:43;;;;;;;7.47;1.50;;;11.70;99.90;;;;;;4985504;28;20048;-82
2022/07/14 03:19:08;;;;;;;2.97;1.00;;;11.70;99.90;;;;;;4980163;28;20057;-82
2022/07/14 03:21:34;;;;;;;6.80;2.50;;;11.60;99.90;;;;;;4977616;28;20065;-82
2022/07/14 03:24:00;;;;;;;7.47;1.65;;;11.70;99.90;;;;;;4977935;28;20118;-82
2022/07/14 03:26:28;;;;;;;3.17;1.30;;;11.70;99.90;;;;;;4963192;28;20092;-82
2022/07/14 03:28:54;;;;;;;9.40;1.80;;;11.70;99.90;;;;;;4982008;28;20038;-82
2022/07/14 03:31:19;;;;;;;8.27;1.98;;;11.70;99.90;;;;;;4983433;28;20057;-82
2022/07/14 03:33:45;;;;;;;6.47;2.42;;;11.70;99.90;;;;;;4979954;28;20041;-82
2022/07/14 03:36:10;;;;;;;7.05;2.10;;;11.80;99.90;;;;;;4986496;28;20486;-83
2022/07/14 03:38:36;;;;;;;7.90;1.90;;;11.80;99.90;;;;;;4982061;28;20060;-83
2022/07/14 03:41:03;;;;;;;5.70;1.73;;;11.90;99.90;;;;;;4979172;28;20128;-83
2022/07/14 03:43:29;;;;;;;4.82;2.25;;;11.90;99.90;;;;;;4991411;28;20042;-82
2022/07/14 03:45:55;;;;;;;7.85;1.98;;;11.90;99.90;;;;;;4996834;28;20045;-83
2022/07/14 03:48:21;;;;;;;5.88;1.90;;;12.00;99.90;;;;;;4995648;28;20078;-83
2022/07/14 03:50:47;;;;;;;5.60;1.33;;;12.10;99.90;;;;;;4979763;28;21807;-81
2022/07/14 03:53:13;;;;;;;6.20;1.48;;;12.20;99.90;;;;;;4980504;28;20041;-82
2022/07/14 03:55:41;;;;;;;9.02;1.85;;;12.20;99.90;;;;;;4998102;28;20038;-82
2022/07/14 03:58:07;;;;;;;4.78;1.63;;;12.30;99.90;;;;;;4998734;28;20152;-82
2022/07/14 04:00:33;;;;;;;5.65;1.67;;;12.40;99.90;;;;;;4998759;28;20050;-83
2022/07/14 04:02:58;;;;;;;8.70;1.50;;;12.40;99.90;;;;;;5000464;28;20471;-83
2022/07/14 04:05:24;;;;;;;8.43;1.85;;;12.50;99.90;;;;;;5003888;28;20041;-83
2022/07/14 04:07:50;;;;;;;4.97;2.28;;;12.50;99.90;;;;;;5004129;28;20041;-83
2022/07/14 04:10:15;;;;;;;6.55;2.10;;;12.60;99.90;;;;;;5004190;28;20080;-84
2022/07/14 04:12:41;;;;;;;6.10;1.67;;;12.50;99.90;;;;;;4988056;28;20049;-83
2022/07/14 04:15:07;;;;;;;10.25;2.13;;;12.60;99.90;;;;;;4990551;28;20042;-83
2022/07/14 04:17:32;;;;;;;7.25;2.40;;;12.60;99.90;;;;;;4985192;28;20129;-83
2022/07/14 04:19:58;;;;;;;8.90;2.30;;;12.60;99.90;;;;;;4982351;28;20158;-82
2022/07/14 04:22:23;;;;;;;8.30;1.80;;;12.60;99.90;;;;;;4967540;28;20042;-81
2022/07/14 04:24:49;;;;;;;8.43;2.67;;;12.70;99.90;;;;;;4984111;28;20061;-82
2022/07/14 04:27:15;;;;;;;6.95;2.35;;;12.70;99.90;;;;;;4999064;28;20038;-82
2022/07/14 04:29:40;;;;;;;7.50;1.83;;;12.70;99.90;;;;;;4999725;28;20428;-82
2022/07/14 04:32:07;;;;;;;3.20;1.17;;;12.60;99.90;;;;;;4998726;28;20412;-81
2022/07/14 04:34:34;;;;;;;3.50;1.63;;;12.50;99.90;;;;;;4998991;28;20038;-82
2022/07/14 04:37:00;;;;;;;8.05;1.48;;;12.50;99.90;;;;;;4999878;28;20408;-81
2022/07/14 04:39:25;;;;;;;5.07;1.33;;;12.40;99.90;;;;;;4999055;28;20045;-81
2022/07/14 04:41:51;;;;;;;5.32;1.10;;;12.40;99.90;;;;;;4999205;28;20477;-81
2022/07/14 04:44:17;;;;;;;5.78;1.85;;;12.40;99.90;;;;;;5000149;28;20053;-81
2022/07/14 04:46:43;;;;;;;5.45;1.45;;;12.40;99.90;;;;;;4996740;28;20042;-83
2022/07/14 04:52:06;;;;;;;9.25;2.03;;;12.40;99.90;;;;;;4961071;28;20539;-83
2022/07/14 04:54:34;;;;;;;5.50;1.85;;;12.60;99.90;;;;;;4995310;28;20046;-84
2022/07/14 04:57:01;;;;;;;4.50;1.55;;;12.60;99.90;;;;;;4995962;28;20045;-84
2022/07/14 04:59:27;;;;;;;10.60;1.92;;;12.70;99.90;;;;;;5006405;28;20069;-83
2022/07/14 05:01:53;;;;;;;6.35;1.52;;;12.80;99.90;;;;;;5014638;28;20030;-83
2022/07/14 05:04:19;;;;;;;6.25;2.13;;;12.90;99.90;;;;;;5011452;28;20058;-84
2022/07/14 05:06:46;;;;;;;5.60;1.30;;;13.00;99.90;;;;;;5009534;28;20045;-83
2022/07/14 05:09:13;;;;;;;8.27;1.90;;;13.10;99.90;;;;;;5009193;28;20046;-84
2022/07/14 05:11:40;;;;;;;6.43;1.77;;;13.20;99.90;;;;;;5006536;28;20049;-84
2022/07/14 05:14:05;;;;;;;9.32;1.85;;;13.30;99.90;;;;;;4998628;28;20080;-84
2022/07/14 05:16:31;;;;;;;6.97;2.22;;;13.40;99.90;;;;;;4996915;28;20038;-83
2022/07/14 05:18:57;;;;;;;6.00;2.63;;;13.50;99.90;;;;;;5003224;28;20511;-84
2022/07/14 05:21:23;;;;;;;12.63;1.90;;;13.60;99.90;;;;;;4970485;28;20042;-84
2022/07/14 05:23:48;;;;;;;4.57;1.92;;;13.60;99.90;;;;;;4981679;28;20043;-84
2022/07/14 05:26:14;;;;;;;8.32;2.42;;;13.70;99.90;;;;;;4982137;28;20413;-84
2022/07/14 05:28:43;;;;;;;5.55;1.77;;;13.80;99.90;;;;;;4979207;28;20117;-84
2022/07/14 05:31:09;;;;;;;8.63;1.85;;;13.90;99.90;;;;;;4978064;28;20052;-85
2022/07/14 05:33:35;;;;;;;4.55;1.92;;;13.90;99.90;;;;;;4978489;28;20597;-85
2022/07/14 05:36:01;;;;;;;5.72;2.15;;;14.00;99.90;;;;;;4978451;28;20042;-84
2022/07/14 05:38:27;;;;;;;8.70;2.17;;;14.10;99.90;;;;;;4978339;28;20046;-83
2022/07/14 05:40:53;;;;;;;6.90;1.67;;;14.10;99.90;;;;;;4979568;28;20093;-84
2022/07/14 05:43:19;;;;;;;5.13;1.55;;;14.20;99.90;;;;;;4978980;28;20046;-84
2022/07/14 05:45:46;;;;;;;6.05;1.77;;;14.30;99.90;;;;;;4979099;28;20042;-84
2022/07/14 05:48:11;;;;;;;3.65;1.13;;;14.30;99.90;;;;;;4980244;28;20077;-83
2022/07/14 05:50:37;;;;;;;4.50;1.15;;;14.50;99.90;;;;;;4996335;28;20488;-83
2022/07/14 05:53:03;;;;;;;3.97;1.30;;;14.50;99.90;;;;;;4998309;28;20405;-84
2022/07/14 05:55:28;;;;;;;4.13;1.33;;;14.60;99.90;;;;;;4997775;28;20044;-84
2022/07/14 05:57:54;;;;;;;3.83;0.90;;;14.70;99.90;;;;;;4982811;28;20076;-84
2022/07/14 06:00:19;;;;;;;4.80;0.80;;;14.80;99.90;;;;;;4999273;28;20052;-83
2022/07/14 06:02:45;;;;;;;6.28;1.52;;;14.90;99.90;;;;;;4996595;28;20046;-83
2022/07/14 06:05:11;;;;;;;3.53;1.00;;;15.00;99.90;;;;;;4996742;28;20436;-83
2022/07/14 06:07:37;;;;;;;3.95;1.10;;;15.10;99.90;;;;;;4997116;28;20070;-83
2022/07/14 06:10:05;;;;;;;6.00;0.70;;;15.20;99.90;;;;;;4996770;28;20129;-83
2022/07/14 06:12:31;;;;;;;3.15;0.63;;;15.30;99.90;;;;;;4996865;28;20496;-84
2022/07/14 06:14:57;;;;;;;4.93;1.23;;;15.40;99.90;;;;;;4996401;28;20096;-84
2022/07/14 06:17:23;;;;;;;8.38;1.52;;;15.50;99.90;;;;;;4996273;28;20401;-83
2022/07/14 06:19:48;;;;;;;6.88;1.13;;;15.60;99.90;;;;;;4995870;28;20041;-84
2022/07/14 06:22:14;;;;;;;6.97;0.50;;;15.70;99.90;;;;;;4996073;28;20053;-84
2022/07/14 06:24:41;;;;;;;3.83;0.68;;;15.80;99.90;;;;;;4995251;28;20072;-84
2022/07/14 06:27:06;;;;;;;5.15;0.88;;;15.90;99.90;;;;;;4995692;28;20121;-83
2022/07/14 06:29:32;;;;;;;5.03;0.30;;;15.90;99.90;;;;;;4996144;28;20076;-84
2022/07/14 06:31:58;;;;;;;4.93;1.38;;;16.00;99.90;;;;;;4979497;28;20038;-84
2022/07/14 06:34:24;;;;;;;6.78;0.60;;;16.10;99.90;;;;;;4996233;28;20045;-85
2022/07/14 06:36:49;;;;;;;2.10;0.35;;;16.20;99.90;;;;;;4996647;28;20547;-84
2022/07/14 06:39:15;;;;;;;1.70;0.30;;;16.40;99.90;;;;;;4996290;28;20204;-84
2022/07/14 06:41:41;;;;;;;2.95;0.65;;;16.80;99.90;;;;;;4979694;28;20041;-84
2022/07/14 06:44:07;;;;;;;3.90;0.45;;;17.10;99.90;;;;;;4980019;28;20038;-84
2022/07/14 06:46:33;;;;;;;1.45;0.20;;;17.40;99.90;;;;;;4995971;28;20049;-84
2022/07/14 06:48:59;;;;;;;4.38;0.75;;;17.60;99.90;;;;;;4995325;28;20352;-83
2022/07/14 06:51:25;;;;;;;2.95;0.30;;;17.80;99.90;;;;;;4995626;28;20092;-84
2022/07/14 06:53:51;;;;;;;1.90;0.20;;;17.90;99.90;;;;;;4996051;28;20038;-84
2022/07/14 06:56:17;;;;;;;5.95;0.45;;;18.10;99.90;;;;;;4978811;28;20036;-84
2022/07/14 06:58:42;;;;;;;2.28;0.40;;;18.40;99.90;;;;;;4996170;28;20057;-83
2022/07/14 07:01:08;;;;;;;1.90;0.50;;;18.30;99.90;;;;;;4995715;28;20042;-84
2022/07/14 07:03:34;;;;;;;4.28;0.38;;;18.10;99.90;;;;;;4995761;28;20485;-84
2022/07/14 07:08:43;;;;;;;2.25;0.20;;;18.00;99.90;;;;;;4997123;28;20550;-82
2022/07/14 07:11:09;;;;;;;1.77;0.20;;;18.50;99.90;;;;;;4997936;28;20124;-84
2022/07/14 07:13:37;;;;;;;3.33;0.30;;;18.80;99.90;;;;;;4997244;28;20038;-83
2022/07/14 07:16:07;;;;;;;4.53;0.50;;;18.80;99.90;;;;;;4997121;28;20037;-83
2022/07/14 07:18:33;;;;;;;3.05;0.22;;;18.70;99.90;;;;;;4997508;28;20052;-83
2022/07/14 07:20:59;;;;;;;1.60;0.25;;;18.60;99.90;;;;;;4981610;28;20050;-83
2022/07/14 07:23:25;;;;;;;0.50;0.20;;;18.80;99.90;;;;;;4982022;28;20056;-83
2022/07/14 07:25:51;;;;;;;2.58;0.20;;;19.30;99.90;;;;;;5000846;28;20046;-83
2022/07/14 07:28:17;;;;;;;2.83;0.30;;;19.50;99.90;;;;;;4984893;28;20038;-82
2022/07/14 07:30:43;;;;;;;4.65;0.30;;;19.50;99.90;;;;;;4984150;28;20093;-82
2022/07/14 07:33:08;;;;;;;2.90;0.20;;;19.70;99.90;;;;;;5002565;28;20114;-81
2022/07/14 07:35:35;;;;;;;1.90;0.40;;;19.90;99.90;;;;;;5002870;28;20041;-82
2022/07/14 07:38:00;;;;;;;2.95;0.20;;;20.10;99.90;;;;;;5003266;28;20092;-82
2022/07/14 07:40:26;;;;;;;2.17;0.20;;;20.40;99.90;;;;;;5007232;28;20046;-82
2022/07/14 07:42:52;;;;;;;1.52;0.20;;;20.60;99.90;;;;;;5007090;28;20090;-82
2022/07/14 07:45:18;;;;;;;4.80;0.40;;;20.60;99.90;;;;;;5007825;28;20076;-82
2022/07/14 07:48:08;;;;;;;3.30;0.20;;;20.70;99.90;;;;;;4991083;28;20103;-81
2022/07/14 07:50:55;;;;;;;5.90;0.43;;;20.70;99.90;;;;;;4987412;28;20049;-81
2022/07/14 07:53:34;;;;;;;5.00;0.57;;;20.60;99.90;;;;;;5005646;28;20143;-80
2022/07/14 07:56:15;;;;;;;1.38;0.20;;;20.30;99.90;;;;;;4989164;28;20042;-80
2022/07/14 08:01:32;;;;;;;5.07;0.57;;;20.10;99.90;;;;;;3104892;26;20062;-80
2022/07/14 08:03:58;;;;;;;3.17;0.30;;;20.50;99.90;;;;;;5003145;28;20499;-80
2022/07/14 08:06:23;;;;;;;4.32;0.40;;;21.10;99.90;;;;;;5005712;28;20485;-81
2022/07/14 08:08:52;;;;;;;1.98;0.20;;;21.50;99.90;;;;;;5007235;28;20044;-81
2022/07/14 08:15:17;;;;;;;0.82;0.10;;;20.60;99.90;;;;;;5009369;28;20004;-79
2022/07/14 08:17:46;;;;;;;3.20;0.60;;;20.10;99.90;;;;;;5001031;28;20050;-80
2022/07/14 08:20:12;;;;;;;2.00;0.20;;;20.10;99.90;;;;;;5002846;28;20507;-81
2022/07/14 08:22:38;;;;;;;2.15;0.10;;;20.60;99.90;;;;;;5001143;28;20041;-80
2022/07/14 08:25:06;;;;;;;2.60;0.20;;;21.00;99.90;;;;;;4984664;28;20052;-80
2022/07/14 08:27:32;;;;;;;2.63;0.20;;;21.30;99.90;;;;;;5002405;28;20054;-81
2022/07/14 08:29:57;;;;;;;3.00;0.20;;;21.80;99.90;;;;;;5003298;28;20444;-81
2022/07/14 08:32:53;;;;;;;1.70;0.20;;;21.60;99.90;;;;;;5003105;28;20046;-81
2022/07/14 08:35:24;;;;;;;2.08;0.22;;;21.00;99.90;;;;;;4982693;28;20081;-81
2022/07/14 08:37:51;;;;;;;1.73;0.20;;;20.50;99.90;;;;;;5003641;28;20045;-81
2022/07/14 08:40:22;;;;;;;3.50;0.20;;;20.70;99.90;;;;;;5004030;28;20038;-81
2022/07/14 08:42:50;;;;;;;1.92;0.20;;;21.00;99.90;;;;;;5003571;28;20093;-81
2022/07/14 08:45:19;;;;;;;1.67;0.30;;;21.40;99.90;;;;;;5003344;28;20050;-81
2022/07/14 08:47:46;;;;;;;2.35;0.20;;;21.80;99.80;;;;;;5003334;28;20037;-81
2022/07/14 08:50:14;;;;;;;2.58;0.10;;;22.10;98.40;;;;;;5003063;28;20046;-81
2022/07/14 08:52:41;;;;;;;1.52;0.20;;;22.40;96.60;;;;;;5003017;28;20045;-81
2022/07/14 08:55:10;;;;;;;2.25;0.10;;;22.40;95.20;;;;;;5002985;28;20046;-81
2022/07/14 08:57:37;;;;;;;0.77;0.15;;;22.50;94.20;;;;;;5003486;28;20091;-80
2022/07/14 09:00:09;;;;;;;0.77;0.10;;;22.80;94.10;;;;;;5003045;28;20049;-81
2022/07/14 09:02:35;;;;;;;2.47;0.17;;;22.80;93.20;;;;;;5006489;28;20081;-80
2022/07/14 09:05:00;;;;;;;1.63;0.10;;;22.80;91.30;;;;;;4992912;28;20066;-82
2022/07/14 09:07:34;;;;;;;2.67;0.13;;;22.70;92.00;;;;;;5015413;28;20121;-82
2022/07/14 09:10:10;;;;;;;1.60;0.10;;;22.90;92.80;;;;;;5035176;28;20042;-82
2022/07/14 09:12:36;;;;;;;1.95;0.08;;;23.10;90.40;;;;;;5016709;28;20117;-81
2022/07/14 09:17:55;;;;;;;1.25;0.30;;;23.00;86.40;;;;;;5017416;28;20057;-82
2022/07/14 09:20:24;;;;;;;0.68;0.17;;;22.90;85.50;;;;;;5028433;28;20142;-82
2022/07/14 09:23:00;;;;;;;4.70;0.60;;;23.00;89.00;;;;;;5009455;28;20046;-82
2022/07/14 09:25:28;;;;;;;0.95;0.10;;;23.20;90.40;;;;;;5009921;28;20045;-82
2022/07/14 09:27:55;;;;;;;3.58;0.30;;;23.50;90.80;;;;;;5007475;28;20045;-82
2022/07/14 09:30:22;;;;;;;2.97;0.20;;;23.70;90.10;;;;;;5008636;28;20088;-81
2022/07/14 09:32:58;;;;;;;1.02;0.30;;;23.50;89.50;;;;;;5007827;28;20046;-82
2022/07/14 09:35:26;;;;;;;2.35;0.20;;;23.20;89.40;;;;;;5007444;28;20038;-80
2022/07/14 09:37:53;;;;;;;3.33;0.20;;;22.80;90.40;;;;;;5026553;28;20052;-80
2022/07/14 09:40:27;;;;;;;2.17;0.20;;;22.60;90.40;;;;;;5009735;28;20040;-82
2022/07/14 09:42:58;;;;;;;1.23;0.20;;;22.40;87.40;;;;;;5005288;28;20034;-80
2022/07/14 09:45:28;;;;;;;0.50;0.10;;;22.50;89.70;;;;;;5005465;28;20050;-80
2022/07/14 09:47:58;;;;;;;1.67;0.10;;;22.60;88.90;;;;;;5005706;28;20421;-80
2022/07/14 09:50:54;;;;;;;4.20;0.20;;;22.70;88.50;;;;;;5005520;28;20052;-80
2022/07/14 09:53:19;;;;;;;0.38;0.10;;;22.90;86.00;;;;;;5007115;28;20050;-80
2022/07/14 09:56:09;;;;;;;0.70;0.20;;;22.90;88.60;;;;;;4988956;28;20092;-82
2022/07/14 09:58:45;;;;;;;1.65;0.20;;;23.30;86.50;;;;;;4987150;28;20041;-82
2022/07/14 10:01:19;;;;;;;3.55;0.20;;;23.50;86.60;;;;;;5003078;28;20046;-82
2022/07/14 10:03:47;;;;;;;2.88;0.20;;;23.30;87.50;;;;;;5004508;28;20038;-82
2022/07/14 10:06:14;;;;;;;1.27;0.35;;;23.20;86.90;;;;;;5003548;28;20045;-82
2022/07/14 10:08:43;;;;;;;1.85;0.20;;;23.20;88.50;;;;;;5002732;28;20056;-82
2022/07/14 10:11:10;;;;;;;3.05;0.20;;;23.00;87.90;;;;;;5002393;28;20045;-82
2022/07/14 10:13:37;;;;;;;5.30;0.30;;;22.90;87.60;;;;;;5001581;28;20061;-82
2022/07/14 10:16:03;;;;;;;1.48;0.20;;;22.80;88.10;;;;;;5001541;28;20117;-82
2022/07/14 10:18:28;;;;;;;2.42;0.17;;;22.90;88.40;;;;;;5003533;28;20145;-81
2022/07/14 10:20:59;;;;;;;1.98;0.35;;;23.00;87.80;;;;;;5003503;28;20056;-82
2022/07/14 10:23:26;;;;;;;1.23;0.10;;;23.00;89.00;;;;;;5003431;28;20045;-82
2022/07/14 10:25:57;;;;;;;1.95;0.10;;;22.90;87.80;;;;;;5002684;28;20052;-82
2022/07/14 10:28:23;;;;;;;1.40;0.10;;;22.90;87.90;;;;;;5002652;28;20042;-80
2022/07/14 10:31:07;;;;;;;2.83;0.32;;;22.90;89.20;;;;;;5005910;28;20038;-81
2022/07/14 10:34:10;;;;;;;1.38;0.10;;;23.10;85.80;;;;;;5003942;28;20053;-81
2022/07/14 10:36:39;;;;;;;2.88;0.10;;;23.20;83.10;;;;;;5002869;28;20042;-82
2022/07/14 10:39:53;;;;;;;1.23;0.10;;;23.10;83.70;;;;;;5023613;28;20105;-82
2022/07/14 10:42:21;;;;;;;3.88;0.65;;;23.00;83.40;;;;;;4948583;28;20138;-82
2022/07/14 10:44:47;;;;;;;1.13;0.10;;;23.10;82.00;;;;;;5008077;28;20107;-82
2022/07/14 10:47:14;;;;;;;0.88;0.10;;;23.00;82.80;;;;;;5007433;28;20060;-82
2022/07/14 10:50:07;;;;;;;1.23;0.20;;;23.30;88.00;;;;;;5009084;28;20037;-82
2022/07/14 10:52:48;;;;;;;2.30;0.30;;;23.70;82.60;;;;;;5023366;28;20497;-82
2022/07/14 10:55:13;;;;;;;2.08;0.35;;;23.80;83.60;;;;;;5023360;28;20061;-82
2022/07/14 10:57:59;;;;;;;1.60;0.10;;;23.80;84.50;;;;;;5007334;28;20061;-83
2022/07/14 11:00:43;;;;;;;2.08;0.40;;;23.90;83.40;;;;;;5005118;28;20046;-82
2022/07/14 11:03:19;;;;;;;1.00;0.20;;;24.00;80.50;;;;;;5004246;28;20372;-81
2022/07/14 11:06:03;;;;;;;1.80;0.10;;;24.00;79.80;;;;;;5003567;28;20163;-81
2022/07/14 11:08:33;;;;;;;3.30;0.38;;;23.70;81.50;;;;;;5001206;28;20110;-80
2022/07/14 11:11:00;;;;;;;0.93;0.30;;;23.60;80.90;;;;;;5001819;28;20029;-81
2022/07/14 11:13:26;;;;;;;1.15;0.20;;;23.40;82.40;;;;;;5005287;28;20042;-81
2022/07/14 11:15:54;;;;;;;2.53;0.25;;;23.40;83.50;;;;;;5004780;28;20045;-81
2022/07/14 11:18:29;;;;;;;1.58;0.32;;;23.30;82.30;;;;;;5003279;28;20049;-80
2022/07/14 11:21:07;;;;;;;2.28;0.15;;;23.10;85.00;;;;;;4989366;28;20073;-82
2022/07/14 11:23:54;;;;;;;0.98;0.10;;;23.00;82.80;;;;;;5005984;28;20411;-81
2022/07/14 11:26:35;;;;;;;3.03;0.30;;;22.90;85.10;;;;;;5007169;28;20041;-81
2022/07/14 11:29:03;;;;;;;2.35;0.25;;;22.80;84.90;;;;;;5004668;28;20479;-82
2022/07/14 11:31:43;;;;;;;0.63;0.10;;;22.70;84.30;;;;;;5006766;28;20046;-82
2022/07/14 11:37:10;;;;;;;0.45;0.10;;;22.80;88.10;;;;;;5006716;28;20397;-82
2022/07/14 11:39:41;;;;;;;1.45;0.20;;;22.90;88.70;;;;;;4990765;28;20049;-81
2022/07/14 11:42:13;;;;;;;2.60;0.10;;;22.90;86.70;;;;;;5003915;28;20045;-82
2022/07/14 11:44:38;;;;;;;3.05;0.10;;;22.80;87.10;;;;;;5001965;28;20401;-82
2022/07/14 11:47:26;;;;;;;1.83;0.30;;;22.60;87.70;;;;;;5001622;28;20048;-81
2022/07/14 11:49:53;;;;;;;3.10;0.10;;;22.40;89.40;;;;;;5002190;28;20489;-82
2022/07/14 11:52:25;;;;;;;1.85;0.20;;;22.30;91.60;;;;;;5001792;28;20042;-82
2022/07/14 11:54:53;;;;;;;1.50;0.32;;;22.30;92.30;;;;;;5002822;28;20046;-80
2022/07/14 11:57:19;;;;;;;1.80;0.13;;;22.30;91.50;;;;;;4985064;28;20131;-82
2022/07/14 11:59:45;;;;;;;3.33;0.20;;;22.30;91.10;;;;;;4984447;28;20115;-82
2022/07/14 12:02:18;;;;;;;5.72;0.28;;;22.30;90.50;;;;;;5001262;28;20447;-82
2022/07/14 12:04:54;;;;;;;1.20;0.13;;;22.30;90.40;;;;;;4985721;28;20042;-82
2022/07/14 12:07:43;;;;;;;1.73;0.20;;;22.30;91.60;;;;;;4984823;28;20046;-82
2022/07/14 12:10:09;;;;;;;1.52;0.20;;;22.30;91.30;;;;;;5000032;28;20042;-82
2022/07/14 12:12:47;;;;;;;0.60;0.20;;;22.70;90.80;;;;;;5002353;28;20182;-82
2022/07/14 12:15:26;;;;;;;2.20;0.10;;;23.30;92.00;;;;;;5000532;28;20393;-82
2022/07/14 12:17:54;;;;;;;1.92;0.10;;;24.20;90.00;;;;;;5001235;28;20064;-82
2022/07/14 12:20:22;;;;;;;1.95;0.80;;;24.90;86.50;;;;;;5001802;28;20049;-82
2022/07/14 12:22:53;;;;;;;3.50;0.40;;;25.00;78.30;;;;;;5001373;28;20065;-82
2022/07/14 12:25:34;;;;;;;2.85;0.20;;;25.00;79.40;;;;;;5002031;28;20052;-80
2022/07/14 12:28:03;;;;;;;2.40;0.20;;;25.40;76.90;;;;;;5004458;28;20046;-80
2022/07/14 12:30:44;;;;;;;1.85;0.10;;;25.60;79.20;;;;;;5005805;28;20053;-80
2022/07/14 12:33:11;;;;;;;0.90;0.10;;;25.40;73.30;;;;;;5004378;28;20041;-81
2022/07/14 12:35:38;;;;;;;0.50;0.15;;;24.80;75.50;;;;;;5006790;28;20046;-81
2022/07/14 12:38:04;;;;;;;1.45;0.17;;;24.30;76.90;;;;;;5004435;28;20053;-81
2022/07/14 12:40:32;;;;;;;1.33;0.10;;;23.90;77.50;;;;;;4990095;28;20053;-82
2022/07/14 12:42:58;;;;;;;2.70;0.45;;;23.60;78.50;;;;;;5009501;28;20376;-82
2022/07/14 12:45:24;;;;;;;1.05;0.10;;;23.30;81.10;;;;;;5007978;28;20042;-82
2022/07/14 12:47:50;;;;;;;1.25;0.10;;;23.10;82.00;;;;;;5006883;28;20042;-83
2022/07/14 12:50:20;;;;;;;0.85;0.20;;;22.90;83.00;;;;;;5007943;28;20054;-81
2022/07/14 12:52:58;;;;;;;3.55;0.75;;;22.80;84.40;;;;;;5024842;28;20045;-82
2022/07/14 12:55:30;;;;;;;2.80;0.20;;;22.70;86.60;;;;;;5007102;28;20063;-82
2022/07/14 12:58:02;;;;;;;0.98;0.10;;;22.70;84.20;;;;;;5007266;28;20108;-82
2022/07/14 13:00:30;;;;;;;1.05;0.10;;;22.80;83.80;;;;;;5006913;28;20034;-82
2022/07/14 13:03:17;;;;;;;1.73;0.15;;;23.40;83.50;;;;;;5001839;28;20414;-82
2022/07/14 13:05:51;;;;;;;1.33;0.20;;;23.80;82.70;;;;;;5020928;28;20050;-82
2022/07/14 13:08:37;;;;;;;3.25;0.20;;;23.70;81.90;;;;;;5012215;28;20053;-82
2022/07/14 13:11:12;;;;;;;5.22;0.50;;;23.30;80.60;;;;;;5013633;28;20057;-82
2022/07/14 13:13:48;;;;;;;3.35;0.10;;;22.70;79.80;;;;;;5005718;28;20042;-82
2022/07/14 13:16:23;;;;;;;4.78;0.20;;;22.20;83.20;;;;;;5006893;28;20069;-82
2022/07/14 13:19:24;;;;;;;2.38;0.65;;;22.10;84.10;;;;;;5008603;28;20057;-82